createdAt,value
2019-02-11T00:00:57.115Z,0
2019-02-11T00:02:05.277Z,0
2019-02-11T00:03:13.346Z,0
2019-02-11T00:04:21.302Z,0
2019-02-11T00:05:29.444Z,0
2019-02-11T00:06:37.421Z,0
2019-02-11T00:07:45.418Z,0
2019-02-11T00:08:53.486Z,0
2019-02-11T00:10:01.513Z,0
2019-02-11T00:11:09.677Z,0
2019-02-11T00:12:17.740Z,0
2019-02-11T00:13:25.732Z,0
2019-02-11T00:14:33.818Z,0
2019-02-11T00:15:41.840Z,0
2019-02-11T00:16:49.887Z,0
2019-02-11T00:17:57.961Z,0
2019-02-11T00:19:06.014Z,0
2019-02-11T00:20:14.125Z,0
2019-02-11T00:21:22.074Z,0
2019-02-11T00:22:30.151Z,0
2019-02-11T00:23:38.213Z,0
2019-02-11T00:24:46.267Z,0
2019-02-11T00:25:54.336Z,0
2019-02-11T00:27:02.372Z,0
2019-02-11T00:28:10.441Z,0
2019-02-11T00:29:18.503Z,0
2019-02-11T00:30:26.564Z,0
2019-02-11T00:31:34.616Z,0
2019-02-11T00:32:42.728Z,0
2019-02-11T00:33:50.732Z,0
2019-02-11T00:34:58.804Z,0
2019-02-11T00:36:06.847Z,0
2019-02-11T00:37:14.905Z,0
2019-02-11T00:38:22.959Z,0
2019-02-11T00:39:31.026Z,0
2019-02-11T00:40:39.073Z,0
2019-02-11T00:41:47.142Z,0
2019-02-11T00:42:55.185Z,0
2019-02-11T00:44:03.271Z,0
2019-02-11T00:45:11.301Z,0
2019-02-11T00:46:19.507Z,0
2019-02-11T00:47:27.417Z,0
2019-02-11T00:48:35.475Z,0
2019-02-11T00:49:43.532Z,0
2019-02-11T00:50:51.558Z,0
2019-02-11T00:51:59.678Z,0
2019-02-11T00:53:07.703Z,0
2019-02-11T00:54:15.770Z,0
2019-02-11T00:55:23.819Z,0
2019-02-11T00:56:31.852Z,0
2019-02-11T00:57:39.950Z,0
2019-02-11T00:58:47.983Z,0
2019-02-11T00:59:56.051Z,0
2019-02-11T01:01:04.115Z,0
2019-02-11T01:02:12.155Z,0
2019-02-11T01:03:20.225Z,0
2019-02-11T01:04:28.282Z,0
2019-02-11T01:05:36.332Z,0
2019-02-11T01:06:44.396Z,0
2019-02-11T01:07:52.449Z,0
2019-02-11T01:09:00.520Z,0
2019-02-11T01:10:08.572Z,0
2019-02-11T01:11:16.625Z,0
2019-02-11T01:12:24.679Z,0
2019-02-11T01:13:32.731Z,0
2019-02-11T01:14:40.797Z,0
2019-02-11T01:15:48.862Z,0
2019-02-11T01:16:56.918Z,0
2019-02-11T01:18:04.963Z,0
2019-02-11T01:19:13.027Z,0
2019-02-11T01:20:21.085Z,0
2019-02-11T01:21:29.137Z,0
2019-02-11T01:22:37.196Z,0
2019-02-11T01:23:45.245Z,0
2019-02-11T01:24:53.324Z,0
2019-02-11T01:26:01.365Z,0
2019-02-11T01:27:09.426Z,0
2019-02-11T01:28:17.486Z,0
2019-02-11T01:29:25.590Z,0
2019-02-11T01:30:33.594Z,0
2019-02-11T01:31:41.630Z,0
2019-02-11T01:32:49.711Z,0
2019-02-11T01:33:57.779Z,0
2019-02-11T01:35:05.830Z,0
2019-02-11T01:36:13.891Z,0
2019-02-11T01:37:21.913Z,0
2019-02-11T01:38:30.013Z,0
2019-02-11T01:39:38.083Z,0
2019-02-11T01:40:46.119Z,0
2019-02-11T01:41:54.161Z,0
2019-02-11T01:43:02.205Z,0
2019-02-11T01:44:10.288Z,0
2019-02-11T01:45:18.337Z,0
2019-02-11T01:46:26.406Z,0
2019-02-11T01:47:34.457Z,0
2019-02-11T01:48:42.501Z,0
2019-02-11T01:49:50.564Z,0
2019-02-11T01:50:58.631Z,0
2019-02-11T01:52:06.683Z,0
2019-02-11T01:53:14.742Z,0
2019-02-11T01:54:22.805Z,0
2019-02-11T01:55:30.860Z,0
2019-02-11T01:56:38.931Z,0
2019-02-11T01:57:46.974Z,0
2019-02-11T01:58:55.028Z,0
2019-02-11T02:00:03.091Z,0
2019-02-11T02:01:11.146Z,0
2019-02-11T02:02:19.194Z,0
2019-02-11T02:03:27.251Z,0
2019-02-11T02:04:35.311Z,0
2019-02-11T02:05:43.381Z,0
2019-02-11T02:06:51.405Z,0
2019-02-11T02:07:59.472Z,0
2019-02-11T02:09:07.538Z,0
2019-02-11T02:10:15.602Z,0
2019-02-11T02:11:23.664Z,0
2019-02-11T02:12:31.696Z,0
2019-02-11T02:13:44.751Z,0
2019-02-11T02:14:47.822Z,0
2019-02-11T02:15:55.881Z,0
2019-02-11T02:17:03.949Z,0
2019-02-11T02:18:11.974Z,0
2019-02-11T02:19:20.058Z,0
2019-02-11T02:20:28.106Z,0
2019-02-11T02:21:36.159Z,0
2019-02-11T02:22:44.218Z,0
2019-02-11T02:23:52.258Z,0
2019-02-11T02:25:00.317Z,0
2019-02-11T02:26:08.381Z,0
2019-02-11T02:27:16.442Z,0
2019-02-11T02:28:24.509Z,0
2019-02-11T02:29:32.550Z,0
2019-02-11T02:30:40.613Z,0
2019-02-11T02:31:48.673Z,0
2019-02-11T02:32:56.777Z,0
2019-02-11T02:34:04.811Z,0
2019-02-11T02:35:12.842Z,0
2019-02-11T02:36:20.908Z,0
2019-02-11T02:37:28.968Z,0
2019-02-11T02:38:37.023Z,0
2019-02-11T02:39:45.072Z,0
2019-02-11T02:40:53.127Z,0
2019-02-11T02:42:01.189Z,0
2019-02-11T02:43:09.247Z,0
2019-02-11T02:44:17.301Z,0
2019-02-11T02:45:25.391Z,0
2019-02-11T02:46:33.418Z,0
2019-02-11T02:47:41.458Z,0
2019-02-11T02:48:49.539Z,0
2019-02-11T02:49:57.578Z,0
2019-02-11T02:51:05.645Z,0
2019-02-11T02:52:13.697Z,0
2019-02-11T02:53:21.742Z,0
2019-02-11T02:54:29.879Z,0
2019-02-11T02:55:37.893Z,0
2019-02-11T02:56:45.936Z,0
2019-02-11T02:57:53.993Z,0
2019-02-11T02:59:02.019Z,0
2019-02-11T03:00:10.114Z,0
2019-02-11T03:01:18.165Z,0
2019-02-11T03:02:26.218Z,0
2019-02-11T03:03:34.368Z,0
2019-02-11T03:04:42.314Z,0
2019-02-11T03:05:52.795Z,0
2019-02-11T03:06:58.451Z,0
2019-02-11T03:08:06.504Z,0
2019-02-11T03:09:14.569Z,0
2019-02-11T03:10:22.609Z,0
2019-02-11T03:11:30.700Z,0
2019-02-11T03:12:38.727Z,0
2019-02-11T03:13:46.794Z,0
2019-02-11T03:14:54.847Z,0
2019-02-11T03:16:02.913Z,0
2019-02-11T03:17:10.949Z,0
2019-02-11T03:18:19.007Z,0
2019-02-11T03:19:27.268Z,0
2019-02-11T03:20:35.227Z,0
2019-02-11T03:21:43.316Z,0
2019-02-11T03:22:51.290Z,0
2019-02-11T03:23:59.288Z,0
2019-02-11T03:25:07.714Z,0
2019-02-11T03:26:15.400Z,0
2019-02-11T03:27:23.480Z,0
2019-02-11T03:28:31.575Z,0
2019-02-11T03:29:39.588Z,0
2019-02-11T03:30:47.628Z,0
2019-02-11T03:31:55.734Z,0
2019-02-11T03:33:03.750Z,0
2019-02-11T03:34:11.772Z,0
2019-02-11T03:35:19.907Z,0
2019-02-11T03:36:27.922Z,0
2019-02-11T03:37:36.306Z,0
2019-02-11T03:38:44.128Z,0
2019-02-11T03:39:52.243Z,0
2019-02-11T03:41:00.142Z,0
2019-02-11T03:42:08.201Z,0
2019-02-11T03:43:16.239Z,0
2019-02-11T03:44:24.305Z,0
2019-02-11T03:45:32.341Z,0
2019-02-11T03:46:40.520Z,0
2019-02-11T03:47:48.506Z,0
2019-02-11T03:48:56.571Z,0
2019-02-11T03:50:04.595Z,0
2019-02-11T03:51:12.730Z,0
2019-02-11T03:52:20.707Z,0
2019-02-11T03:53:28.755Z,0
2019-02-11T03:54:36.827Z,0
2019-02-11T03:55:44.874Z,0
2019-02-11T03:56:52.930Z,0
2019-02-11T03:58:00.998Z,0
2019-02-11T03:59:09.098Z,0
2019-02-11T04:00:17.132Z,0
2019-02-11T04:01:25.210Z,0
2019-02-11T04:02:33.215Z,0
2019-02-11T04:03:41.275Z,0
2019-02-11T04:04:49.322Z,0
2019-02-11T04:05:57.395Z,0
2019-02-11T04:07:05.447Z,0
2019-02-11T04:08:13.528Z,0
2019-02-11T04:09:21.530Z,0
2019-02-11T04:10:29.682Z,0
2019-02-11T04:11:37.656Z,0
2019-02-11T04:12:45.722Z,0
2019-02-11T04:13:53.777Z,0
2019-02-11T04:15:01.818Z,0
2019-02-11T04:16:09.957Z,0
2019-02-11T04:17:17.956Z,0
2019-02-11T04:18:26.004Z,0
2019-02-11T04:19:34.064Z,0
2019-02-11T04:20:42.093Z,0
2019-02-11T04:21:50.185Z,0
2019-02-11T04:22:58.263Z,0
2019-02-11T04:24:06.492Z,0
2019-02-11T04:25:14.346Z,0
2019-02-11T04:26:22.391Z,0
2019-02-11T04:27:30.452Z,0
2019-02-11T04:28:38.770Z,0
2019-02-11T04:29:46.563Z,0
2019-02-11T04:30:54.678Z,0
2019-02-11T04:32:02.679Z,0
2019-02-11T04:33:10.733Z,0
2019-02-11T04:34:18.890Z,0
2019-02-11T04:35:26.947Z,0
2019-02-11T04:36:34.918Z,0
2019-02-11T04:37:43.191Z,0
2019-02-11T04:38:51.272Z,0
2019-02-11T04:39:59.213Z,0
2019-02-11T04:41:07.360Z,0
2019-02-11T04:42:15.259Z,0
2019-02-11T04:43:23.237Z,0
2019-02-11T04:44:33.892Z,0
2019-02-11T04:45:39.347Z,0
2019-02-11T04:46:47.439Z,0
2019-02-11T04:47:55.608Z,0
2019-02-11T04:49:03.531Z,0
2019-02-11T04:50:11.556Z,0
2019-02-11T04:51:19.635Z,0
2019-02-11T04:52:27.904Z,0
2019-02-11T04:53:35.792Z,0
2019-02-11T04:54:43.815Z,0
2019-02-11T04:55:51.833Z,0
2019-02-11T04:56:59.950Z,0
2019-02-11T04:58:08.018Z,0
2019-02-11T04:59:16.073Z,0
2019-02-11T05:00:24.183Z,0
2019-02-11T05:01:32.119Z,0
2019-02-11T05:02:40.402Z,0
2019-02-11T05:03:48.371Z,0
2019-02-11T05:04:56.422Z,0
2019-02-11T05:06:04.367Z,0
2019-02-11T05:07:12.515Z,0
2019-02-11T05:08:20.674Z,0
2019-02-11T05:09:28.773Z,0
2019-02-11T05:10:36.823Z,0
2019-02-11T05:11:44.660Z,0
2019-02-11T05:12:52.755Z,0
2019-02-11T05:14:00.911Z,0
2019-02-11T05:15:09.149Z,0
2019-02-11T05:16:16.944Z,0
2019-02-11T05:17:25.139Z,0
2019-02-11T05:18:33.084Z,0
2019-02-11T05:19:41.034Z,0
2019-02-11T05:20:49.112Z,0
2019-02-11T05:21:57.396Z,0
2019-02-11T05:23:05.206Z,0
2019-02-11T05:24:13.464Z,0
2019-02-11T05:25:21.325Z,0
2019-02-11T05:26:29.438Z,0
2019-02-11T05:27:37.440Z,0
2019-02-11T05:28:45.664Z,0
2019-02-11T05:29:53.544Z,0
2019-02-11T05:31:01.681Z,0
2019-02-11T05:32:09.701Z,0
2019-02-11T05:33:18.001Z,0
2019-02-11T05:34:25.768Z,0
2019-02-11T05:35:34.192Z,0
2019-02-11T05:36:42.005Z,0
2019-02-11T05:37:49.945Z,0
2019-02-11T05:38:58.019Z,0
2019-02-11T05:40:06.055Z,0
2019-02-11T05:41:14.104Z,0
2019-02-11T05:42:22.158Z,0
2019-02-11T05:43:30.222Z,0
2019-02-11T05:44:38.273Z,0
2019-02-11T05:45:46.346Z,0
2019-02-11T05:46:54.386Z,0
2019-02-11T05:48:02.428Z,0
2019-02-11T05:49:10.505Z,0
2019-02-11T05:50:18.551Z,0
2019-02-11T05:51:26.618Z,0
2019-02-11T05:52:34.678Z,0
2019-02-11T05:53:42.715Z,0
2019-02-11T05:54:50.780Z,0
2019-02-11T05:55:58.836Z,0
2019-02-11T05:57:06.903Z,0
2019-02-11T05:58:14.935Z,0
2019-02-11T05:59:23.012Z,0
2019-02-11T06:00:31.056Z,0
2019-02-11T06:01:39.117Z,0
2019-02-11T06:02:47.159Z,0
2019-02-11T06:03:55.217Z,0
2019-02-11T06:05:03.261Z,0
2019-02-11T06:06:11.339Z,0
2019-02-11T06:07:19.391Z,0
2019-02-11T06:08:27.449Z,0
2019-02-11T06:09:35.505Z,0
2019-02-11T06:10:43.553Z,0
2019-02-11T06:11:51.575Z,0
2019-02-11T06:12:59.692Z,0
2019-02-11T06:14:07.718Z,0
2019-02-11T06:15:15.812Z,0
2019-02-11T06:16:23.836Z,0
2019-02-11T06:17:31.868Z,0
2019-02-11T06:18:39.949Z,0
2019-02-11T06:19:47.998Z,0
2019-02-11T06:20:56.054Z,0
2019-02-11T06:22:04.127Z,0
2019-02-11T06:23:12.138Z,0
2019-02-11T06:24:20.215Z,0
2019-02-11T06:25:28.276Z,0
2019-02-11T06:26:36.321Z,0
2019-02-11T06:27:44.373Z,0
2019-02-11T06:28:52.449Z,0
2019-02-11T06:30:00.486Z,0
2019-02-11T06:31:08.547Z,0
2019-02-11T06:32:16.603Z,0
2019-02-11T06:33:24.662Z,0
2019-02-11T06:34:33.905Z,5
2019-02-11T06:35:40.773Z,5
2019-02-11T06:36:48.826Z,5
2019-02-11T06:37:56.894Z,5
2019-02-11T06:39:04.944Z,5
2019-02-11T06:40:12.999Z,5
2019-02-11T06:41:21.051Z,5
2019-02-11T06:42:29.114Z,5
2019-02-11T06:43:37.161Z,5
2019-02-11T06:44:45.250Z,5
2019-02-11T06:45:53.302Z,10
2019-02-11T06:47:01.334Z,10
2019-02-11T06:48:09.386Z,10
2019-02-11T06:49:17.456Z,10
2019-02-11T06:50:25.501Z,10
2019-02-11T06:51:33.563Z,15
2019-02-11T06:52:41.584Z,15
2019-02-11T06:53:49.699Z,15
2019-02-11T06:54:57.720Z,20
2019-02-11T06:56:05.789Z,20
2019-02-11T06:57:13.933Z,20
2019-02-11T06:58:21.860Z,20
2019-02-11T06:59:29.948Z,20
2019-02-11T07:00:38.014Z,25
2019-02-11T07:01:46.055Z,25
2019-02-11T07:02:54.127Z,30
2019-02-11T07:04:02.144Z,30
2019-02-11T07:05:10.242Z,35
2019-02-11T07:06:18.284Z,35
2019-02-11T07:07:26.350Z,35
2019-02-11T07:08:34.408Z,35
2019-02-11T07:09:42.454Z,40
2019-02-11T07:10:55.544Z,40
2019-02-11T07:11:58.567Z,40
2019-02-11T07:13:06.631Z,45
2019-02-11T07:14:14.692Z,50
2019-02-11T07:15:22.746Z,50
2019-02-11T07:16:30.795Z,55
2019-02-11T07:17:38.836Z,60
2019-02-11T07:18:46.912Z,65
2019-02-11T07:19:54.967Z,70
2019-02-11T07:21:03.066Z,75
2019-02-11T07:22:11.078Z,80
2019-02-11T07:23:19.137Z,80
2019-02-11T07:24:27.184Z,80
2019-02-11T07:25:35.243Z,85
2019-02-11T07:26:43.293Z,90
2019-02-11T07:27:51.344Z,95
2019-02-11T07:28:59.417Z,95
2019-02-11T07:30:07.465Z,100
2019-02-11T07:31:15.533Z,105
2019-02-11T07:32:23.592Z,105
2019-02-11T07:33:31.609Z,110
2019-02-11T07:34:39.685Z,110
2019-02-11T07:35:47.754Z,115
2019-02-11T07:36:58.007Z,115
2019-02-11T07:38:03.872Z,120
2019-02-11T07:39:11.937Z,120
2019-02-11T07:40:20.019Z,120
2019-02-11T07:41:28.037Z,120
2019-02-11T07:42:36.099Z,120
2019-02-11T07:43:44.164Z,120
2019-02-11T07:44:52.166Z,120
2019-02-11T07:46:00.257Z,120
2019-02-11T07:47:08.319Z,120
2019-02-11T07:48:16.379Z,115
2019-02-11T07:49:24.433Z,115
2019-02-11T07:50:32.481Z,115
2019-02-11T07:51:42.226Z,120
2019-02-11T07:52:48.603Z,120
2019-02-11T07:53:56.651Z,125
2019-02-11T07:55:04.726Z,135
2019-02-11T07:56:12.768Z,135
2019-02-11T07:57:20.813Z,135
2019-02-11T07:58:28.885Z,115
2019-02-11T07:59:36.943Z,115
2019-02-11T08:00:45.031Z,130
2019-02-11T08:01:53.057Z,155
2019-02-11T08:03:01.121Z,155
2019-02-11T08:04:09.165Z,160
2019-02-11T08:05:17.221Z,160
2019-02-11T08:06:25.281Z,145
2019-02-11T08:07:33.335Z,160
2019-02-11T08:08:41.388Z,160
2019-02-11T08:09:49.451Z,155
2019-02-11T08:10:57.497Z,170
2019-02-11T08:12:05.593Z,180
2019-02-11T08:13:13.627Z,185
2019-02-11T08:14:21.663Z,195
2019-02-11T08:15:37.156Z,205
2019-02-11T08:16:37.798Z,205
2019-02-11T08:17:46.875Z,190
2019-02-11T08:18:53.920Z,160
2019-02-11T08:20:01.951Z,175
2019-02-11T08:21:10.026Z,185
2019-02-11T08:22:18.079Z,200
2019-02-11T08:23:26.130Z,200
2019-02-11T08:24:34.198Z,220
2019-02-11T08:25:42.243Z,245
2019-02-11T08:26:50.321Z,260
2019-02-11T08:27:58.377Z,270
2019-02-11T08:29:06.433Z,255
2019-02-11T08:30:14.482Z,250
2019-02-11T08:31:22.541Z,255
2019-02-11T08:32:30.596Z,265
2019-02-11T08:33:38.687Z,320
2019-02-11T08:34:46.721Z,375
2019-02-11T08:35:54.780Z,360
2019-02-11T08:37:02.843Z,330
2019-02-11T08:38:10.885Z,315
2019-02-11T08:39:18.957Z,280
2019-02-11T08:40:27.032Z,235
2019-02-11T08:41:35.063Z,185
2019-02-11T08:42:43.125Z,155
2019-02-11T08:43:51.192Z,160
2019-02-11T08:44:59.256Z,145
2019-02-11T08:46:07.297Z,125
2019-02-11T08:47:15.361Z,110
2019-02-11T08:48:23.424Z,105
2019-02-11T08:49:31.472Z,105
2019-02-11T08:50:39.530Z,100
2019-02-11T08:51:47.599Z,105
2019-02-11T08:52:55.658Z,125
2019-02-11T08:54:03.823Z,140
2019-02-11T08:55:11.773Z,150
2019-02-11T08:56:19.835Z,130
2019-02-11T08:57:27.886Z,105
2019-02-11T08:58:35.960Z,105
2019-02-11T08:59:44.013Z,115
2019-02-11T09:00:52.059Z,110
2019-02-11T09:02:00.125Z,100
2019-02-11T09:03:08.178Z,105
2019-02-11T09:04:18.889Z,105
2019-02-11T09:05:24.295Z,110
2019-02-11T09:06:32.344Z,115
2019-02-11T09:07:40.412Z,120
2019-02-11T09:08:48.472Z,115
2019-02-11T09:09:56.526Z,110
2019-02-11T09:11:04.581Z,110
2019-02-11T09:12:12.646Z,110
2019-02-11T09:13:20.717Z,105
2019-02-11T09:14:28.762Z,120
2019-02-11T09:15:36.833Z,170
2019-02-11T09:16:44.888Z,220
2019-02-11T09:17:52.939Z,295
2019-02-11T09:19:00.996Z,340
2019-02-11T09:20:09.064Z,355
2019-02-11T09:21:17.124Z,365
2019-02-11T09:22:25.184Z,350
2019-02-11T09:23:33.233Z,350
2019-02-11T09:24:41.273Z,345
2019-02-11T09:25:49.366Z,340
2019-02-11T09:26:57.407Z,345
2019-02-11T09:28:05.470Z,350
2019-02-11T09:29:13.522Z,350
2019-02-11T09:30:21.571Z,335
2019-02-11T09:31:29.660Z,335
2019-02-11T09:32:37.691Z,340
2019-02-11T09:33:45.764Z,345
2019-02-11T09:34:53.825Z,325
2019-02-11T09:36:03.305Z,325
2019-02-11T09:37:09.942Z,325
2019-02-11T09:38:17.990Z,325
2019-02-11T09:39:26.055Z,330
2019-02-11T09:40:34.110Z,340
2019-02-11T09:41:42.156Z,350
2019-02-11T09:42:50.237Z,345
2019-02-11T09:43:58.301Z,360
2019-02-11T09:45:06.360Z,340
2019-02-11T09:46:14.421Z,330
2019-02-11T09:47:22.461Z,330
2019-02-11T09:48:30.533Z,335
2019-02-11T09:49:38.599Z,345
2019-02-11T09:50:46.662Z,360
2019-02-11T09:51:54.710Z,360
2019-02-11T09:53:02.780Z,370
2019-02-11T09:54:10.842Z,420
2019-02-11T09:55:18.895Z,465
2019-02-11T09:56:26.965Z,450
2019-02-11T09:57:35.018Z,400
2019-02-11T09:58:43.082Z,385
2019-02-11T09:59:51.139Z,380
2019-02-11T10:00:59.192Z,370
2019-02-11T10:02:07.259Z,375
2019-02-11T10:03:15.310Z,375
2019-02-11T10:04:23.661Z,410
2019-02-11T10:05:31.423Z,400
2019-02-11T10:06:39.494Z,380
2019-02-11T10:07:47.560Z,335
2019-02-11T10:08:55.631Z,295
2019-02-11T10:10:03.680Z,265
2019-02-11T10:11:11.737Z,245
2019-02-11T10:12:21.311Z,215
2019-02-11T10:13:27.874Z,220
2019-02-11T10:14:35.933Z,265
2019-02-11T10:15:43.991Z,270
2019-02-11T10:16:52.026Z,290
2019-02-11T10:18:00.118Z,300
2019-02-11T10:19:08.169Z,275
2019-02-11T10:20:16.236Z,270
2019-02-11T10:21:24.275Z,270
2019-02-11T10:22:32.337Z,280
2019-02-11T10:23:40.398Z,325
2019-02-11T10:24:48.470Z,355
2019-02-11T10:25:56.527Z,405
2019-02-11T10:27:04.583Z,410
2019-02-11T10:28:12.659Z,440
2019-02-11T10:29:20.719Z,390
2019-02-11T10:30:28.776Z,380
2019-02-11T10:31:36.824Z,445
2019-02-11T10:32:44.889Z,480
2019-02-11T10:33:52.962Z,515
2019-02-11T10:35:01.018Z,535
2019-02-11T10:36:09.085Z,535
2019-02-11T10:37:17.149Z,510
2019-02-11T10:38:27.273Z,480
2019-02-11T10:39:33.261Z,435
2019-02-11T10:40:41.297Z,355
2019-02-11T10:41:49.428Z,315
2019-02-11T10:42:57.448Z,325
2019-02-11T10:44:05.496Z,300
2019-02-11T10:45:13.621Z,295
2019-02-11T10:46:21.595Z,310
2019-02-11T10:47:29.697Z,270
2019-02-11T10:48:37.758Z,225
2019-02-11T10:49:45.798Z,210
2019-02-11T10:50:53.868Z,220
2019-02-11T10:52:01.905Z,200
2019-02-11T10:53:09.980Z,190
2019-02-11T10:54:18.047Z,185
2019-02-11T10:55:26.083Z,230
2019-02-11T10:56:34.163Z,280
2019-02-11T10:57:42.201Z,355
2019-02-11T10:58:50.294Z,360
2019-02-11T10:59:58.353Z,340
2019-02-11T11:01:06.404Z,315
2019-02-11T11:02:14.465Z,285
2019-02-11T11:03:22.534Z,300
2019-02-11T11:04:30.598Z,285
2019-02-11T11:05:38.672Z,265
2019-02-11T11:06:46.754Z,285
2019-02-11T11:07:55.067Z,320
2019-02-11T11:09:04.562Z,385
2019-02-11T11:10:10.922Z,455
2019-02-11T11:11:18.962Z,495
2019-02-11T11:12:27.026Z,485
2019-02-11T11:13:35.082Z,465
2019-02-11T11:14:43.151Z,465
2019-02-11T11:15:51.199Z,450
2019-02-11T11:16:59.277Z,415
2019-02-11T11:18:07.358Z,380
2019-02-11T11:19:15.428Z,365
2019-02-11T11:20:23.460Z,330
2019-02-11T11:21:31.716Z,345
2019-02-11T11:22:39.610Z,300
2019-02-11T11:23:47.696Z,255
2019-02-11T11:24:55.693Z,220
2019-02-11T11:26:03.758Z,200
2019-02-11T11:27:11.804Z,195
2019-02-11T11:28:19.895Z,205
2019-02-11T11:29:28.460Z,190
2019-02-11T11:30:35.993Z,175
2019-02-11T11:31:44.078Z,185
2019-02-11T11:32:52.117Z,230
2019-02-11T11:34:00.185Z,255
2019-02-11T11:35:08.246Z,210
2019-02-11T11:36:16.344Z,190
2019-02-11T11:37:24.367Z,185
2019-02-11T11:38:32.425Z,180
2019-02-11T11:39:40.487Z,145
2019-02-11T11:40:48.551Z,135
2019-02-11T11:41:56.634Z,140
2019-02-11T11:43:04.682Z,165
2019-02-11T11:44:12.738Z,170
2019-02-11T11:45:20.904Z,170
2019-02-11T11:46:28.865Z,180
2019-02-11T11:47:36.912Z,230
2019-02-11T11:48:44.963Z,265
2019-02-11T11:49:53.038Z,300
2019-02-11T11:51:01.088Z,330
2019-02-11T11:52:09.148Z,355
2019-02-11T11:53:17.230Z,355
2019-02-11T11:54:25.279Z,340
2019-02-11T11:55:33.397Z,350
2019-02-11T11:56:41.383Z,380
2019-02-11T11:57:49.458Z,410
2019-02-11T11:58:57.523Z,420
2019-02-11T12:00:05.575Z,420
2019-02-11T12:01:13.678Z,430
2019-02-11T12:02:22.618Z,445
2019-02-11T12:03:29.755Z,460
2019-02-11T12:04:37.807Z,455
2019-02-11T12:05:45.866Z,445
2019-02-11T12:06:53.926Z,415
2019-02-11T12:08:01.975Z,375
2019-02-11T12:09:10.143Z,330
2019-02-11T12:10:18.088Z,300
2019-02-11T12:11:26.158Z,300
2019-02-11T12:12:34.229Z,305
2019-02-11T12:13:42.264Z,310
2019-02-11T12:14:50.349Z,320
2019-02-11T12:15:58.440Z,320
2019-02-11T12:17:06.468Z,315
2019-02-11T12:18:14.530Z,310
2019-02-11T12:19:22.594Z,285
2019-02-11T12:20:33.212Z,280
2019-02-11T12:21:38.706Z,265
2019-02-11T12:22:46.792Z,260
2019-02-11T12:23:54.824Z,240
2019-02-11T12:25:02.964Z,225
2019-02-11T12:26:10.969Z,220
2019-02-11T12:27:19.006Z,215
2019-02-11T12:28:27.084Z,200
2019-02-11T12:29:35.133Z,205
2019-02-11T12:30:43.191Z,210
2019-02-11T12:31:51.246Z,205
2019-02-11T12:32:59.316Z,215
2019-02-11T12:34:07.376Z,215
2019-02-11T12:35:15.430Z,190
2019-02-11T12:36:23.507Z,200
2019-02-11T12:37:31.543Z,220
2019-02-11T12:38:39.617Z,260
2019-02-11T12:39:47.677Z,270
2019-02-11T12:40:55.756Z,280
2019-02-11T12:42:03.799Z,265
2019-02-11T12:43:11.823Z,255
2019-02-11T12:44:19.911Z,255
2019-02-11T12:45:27.983Z,270
2019-02-11T12:46:36.038Z,285
2019-02-11T12:47:44.135Z,315
2019-02-11T12:48:52.135Z,345
2019-02-11T12:50:00.330Z,355
2019-02-11T12:51:08.260Z,375
2019-02-11T12:52:16.357Z,380
2019-02-11T12:53:24.427Z,370
2019-02-11T12:54:32.449Z,350
2019-02-11T12:55:40.495Z,345
2019-02-11T12:56:48.563Z,325
2019-02-11T12:57:56.639Z,300
2019-02-11T12:59:04.707Z,285
2019-02-11T13:00:16.479Z,280
2019-02-11T13:01:20.810Z,290
2019-02-11T13:02:28.875Z,310
2019-02-11T13:03:36.945Z,315
2019-02-11T13:04:44.990Z,315
2019-02-11T13:05:53.040Z,315
2019-02-11T13:07:01.115Z,320
2019-02-11T13:08:09.178Z,330
2019-02-11T13:09:17.229Z,335
2019-02-11T13:10:25.305Z,345
2019-02-11T13:11:33.390Z,355
2019-02-11T13:12:41.402Z,360
2019-02-11T13:13:49.488Z,360
2019-02-11T13:14:57.532Z,360
2019-02-11T13:16:05.610Z,355
2019-02-11T13:17:15.759Z,350
2019-02-11T13:18:21.942Z,345
2019-02-11T13:19:29.787Z,325
2019-02-11T13:20:37.846Z,290
2019-02-11T13:21:45.955Z,250
2019-02-11T13:22:53.962Z,225
2019-02-11T13:24:02.011Z,220
2019-02-11T13:25:10.123Z,220
2019-02-11T13:26:18.200Z,220
2019-02-11T13:27:26.194Z,225
2019-02-11T13:28:34.258Z,235
2019-02-11T13:29:42.350Z,240
2019-02-11T13:30:50.387Z,235
2019-02-11T13:31:58.469Z,235
2019-02-11T13:33:06.516Z,235
2019-02-11T13:34:14.583Z,215
2019-02-11T13:35:22.654Z,185
2019-02-11T13:36:30.697Z,165
2019-02-11T13:37:38.776Z,160
2019-02-11T13:38:46.822Z,155
2019-02-11T13:39:54.909Z,145
2019-02-11T13:41:02.954Z,155
2019-02-11T13:42:10.986Z,165
2019-02-11T13:43:19.044Z,170
2019-02-11T13:44:27.180Z,175
2019-02-11T13:45:35.161Z,195
2019-02-11T13:46:43.221Z,285
2019-02-11T13:47:55.650Z,380
2019-02-11T13:48:59.384Z,345
2019-02-11T13:50:07.398Z,315
2019-02-11T13:51:15.460Z,305
2019-02-11T13:52:23.534Z,265
2019-02-11T13:53:31.570Z,210
2019-02-11T13:54:39.660Z,165
2019-02-11T13:55:47.702Z,150
2019-02-11T13:56:55.769Z,190
2019-02-11T13:58:03.866Z,210
2019-02-11T13:59:11.859Z,180
2019-02-11T14:00:19.941Z,195
2019-02-11T14:01:28.035Z,225
2019-02-11T14:02:36.098Z,260
2019-02-11T14:03:44.137Z,280
2019-02-11T14:04:52.170Z,300
2019-02-11T14:06:00.246Z,305
2019-02-11T14:07:08.321Z,310
2019-02-11T14:08:16.380Z,270
2019-02-11T14:09:24.473Z,205
2019-02-11T14:10:32.632Z,160
2019-02-11T14:11:40.718Z,150
2019-02-11T14:12:48.613Z,160
2019-02-11T14:14:01.887Z,155
2019-02-11T14:15:04.739Z,170
2019-02-11T14:16:12.791Z,180
2019-02-11T14:17:20.860Z,175
2019-02-11T14:18:28.898Z,180
2019-02-11T14:19:36.980Z,185
2019-02-11T14:20:49.368Z,205
2019-02-11T14:21:53.091Z,215
2019-02-11T14:23:01.148Z,215
2019-02-11T14:24:09.227Z,215
2019-02-11T14:25:17.286Z,215
2019-02-11T14:26:25.326Z,190
2019-02-11T14:27:33.389Z,165
2019-02-11T14:28:41.430Z,150
2019-02-11T14:29:49.583Z,150
2019-02-11T14:30:57.571Z,175
2019-02-11T14:32:05.617Z,175
2019-02-11T14:33:13.700Z,160
2019-02-11T14:34:21.766Z,170
2019-02-11T14:35:29.803Z,195
2019-02-11T14:36:37.879Z,205
2019-02-11T14:37:45.917Z,190
2019-02-11T14:38:54.035Z,190
2019-02-11T14:40:02.557Z,210
2019-02-11T14:41:11.702Z,220
2019-02-11T14:42:19.971Z,205
2019-02-11T14:43:26.866Z,195
2019-02-11T14:44:34.856Z,190
2019-02-11T14:45:42.983Z,185
2019-02-11T14:46:51.057Z,170
2019-02-11T14:47:59.683Z,160
2019-02-11T14:49:07.048Z,140
2019-02-11T14:50:15.255Z,120
2019-02-11T14:51:23.173Z,100
2019-02-11T14:52:31.212Z,105
2019-02-11T14:53:39.357Z,110
2019-02-11T14:54:47.931Z,120
2019-02-11T14:55:55.527Z,130
2019-02-11T14:57:03.558Z,125
2019-02-11T14:58:11.636Z,110
2019-02-11T14:59:19.614Z,90
2019-02-11T15:00:27.750Z,100
2019-02-11T15:01:35.803Z,125
2019-02-11T15:02:43.844Z,135
2019-02-11T15:03:51.865Z,135
2019-02-11T15:05:00.049Z,130
2019-02-11T15:06:07.973Z,130
2019-02-11T15:07:16.416Z,125
2019-02-11T15:08:24.125Z,120
2019-02-11T15:09:32.267Z,105
2019-02-11T15:10:40.630Z,95
2019-02-11T15:11:48.704Z,100
2019-02-11T15:12:56.444Z,95
2019-02-11T15:14:04.865Z,100
2019-02-11T15:15:12.528Z,105
2019-02-11T15:16:20.498Z,110
2019-02-11T15:17:28.628Z,105
2019-02-11T15:18:36.716Z,110
2019-02-11T15:19:44.711Z,110
2019-02-11T15:20:52.773Z,105
2019-02-11T15:22:00.879Z,105
2019-02-11T15:23:08.891Z,105
2019-02-11T15:24:16.942Z,105
2019-02-11T15:25:25.007Z,95
2019-02-11T15:26:33.487Z,85
2019-02-11T15:27:41.179Z,80
2019-02-11T15:28:50.380Z,80
2019-02-11T15:29:57.295Z,90
2019-02-11T15:31:05.364Z,95
2019-02-11T15:32:13.420Z,100
2019-02-11T15:33:21.813Z,100
2019-02-11T15:34:29.442Z,95
2019-02-11T15:35:37.590Z,90
2019-02-11T15:36:45.551Z,90
2019-02-11T15:37:53.711Z,95
2019-02-11T15:39:01.643Z,85
2019-02-11T15:40:09.817Z,75
2019-02-11T15:41:17.834Z,70
2019-02-11T15:42:25.839Z,65
2019-02-11T15:43:33.966Z,60
2019-02-11T15:44:41.967Z,60
2019-02-11T15:45:50.018Z,65
2019-02-11T15:46:58.058Z,70
2019-02-11T15:48:06.210Z,65
2019-02-11T15:49:14.279Z,55
2019-02-11T15:50:22.325Z,45
2019-02-11T15:51:30.300Z,30
2019-02-11T15:52:39.551Z,25
2019-02-11T15:53:47.444Z,25
2019-02-11T15:54:54.450Z,25
2019-02-11T15:56:07.647Z,25
2019-02-11T15:57:10.616Z,20
2019-02-11T15:58:20.301Z,20
2019-02-11T15:59:26.757Z,25
2019-02-11T16:00:34.904Z,30
2019-02-11T16:01:42.973Z,30
2019-02-11T16:02:51.648Z,20
2019-02-11T16:03:59.841Z,15
2019-02-11T16:05:06.906Z,15
2019-02-11T16:06:15.039Z,15
2019-02-11T16:07:23.217Z,10
2019-02-11T16:08:32.254Z,10